Time;durP1;ratioP1;P1;durP2;ratioP2;P2;SDS_P1;SDS_P2;PMS_P1;PMS_P2;Temp;Humidity;BMP_temperature;BMP_pressure;BME280_temperature;BME280_humidity;BME280_pressure;Samples;Min_cycle;Max_cycle;Signal;HPM_P1;HPM_P2
2021/05/26 00:04:35;;;;;;;3.77;2.13;;;14.30;63.40;;;;;;10434262;28;20239;-81
2021/05/26 00:09:38;;;;;;;2.10;1.90;;;14.30;63.40;;;;;;10434258;28;20285;-80
2021/05/26 00:14:40;;;;;;;1.60;1.50;;;14.30;64.30;;;;;;10452825;28;20222;-80
2021/05/26 00:19:43;;;;;;;2.53;1.60;;;14.30;64.30;;;;;;10446238;28;20267;-81
2021/05/26 00:24:45;;;;;;;1.87;1.67;;;14.30;65.10;;;;;;10438682;28;20222;-79
2021/05/26 00:29:48;;;;;;;1.70;1.60;;;14.30;65.00;;;;;;10440562;28;20673;-79
2021/05/26 00:34:49;;;;;;;1.60;1.50;;;14.30;65.10;;;;;;10452545;28;20222;-78
2021/05/26 00:39:52;;;;;;;1.80;1.70;;;14.30;65.90;;;;;;10455897;28;20217;-79
2021/05/26 00:44:54;;;;;;;3.00;2.70;;;14.30;65.70;;;;;;10445134;28;20769;-81
2021/05/26 00:49:55;;;;;;;1.80;1.70;;;14.30;65.30;;;;;;10434430;28;20273;-81
2021/05/26 00:54:58;;;;;;;1.73;1.63;;;14.30;65.80;;;;;;10447569;28;20225;-79
2021/05/26 01:00:00;;;;;;;1.53;1.43;;;14.30;65.60;;;;;;10447462;28;20260;-79
2021/05/26 01:05:03;;;;;;;2.60;1.57;;;14.30;66.60;;;;;;10447045;28;20351;-79
2021/05/26 01:10:07;;;;;;;1.63;1.53;;;14.40;67.20;;;;;;10457037;28;20735;-81
2021/05/26 01:15:24;;;;;;;2.13;1.90;;;14.40;66.70;;;;;;10461433;28;20231;-81
2021/05/26 01:20:28;;;;;;;1.70;1.57;;;14.40;67.90;;;;;;10443586;28;20301;-81
2021/05/26 01:25:31;;;;;;;1.67;1.57;;;14.40;71.50;;;;;;10453954;28;20198;-78
2021/05/26 01:30:33;;;;;;;2.27;1.77;;;14.30;70.60;;;;;;10428512;28;20205;-79
2021/05/26 01:35:37;;;;;;;2.60;1.90;;;14.20;73.10;;;;;;10431214;28;20206;-78
2021/05/26 01:40:40;;;;;;;1.70;1.60;;;14.00;72.90;;;;;;10435753;28;20257;-78
2021/05/26 01:45:42;;;;;;;1.97;1.87;;;14.00;72.10;;;;;;10461876;28;20194;-79
2021/05/26 01:50:44;;;;;;;2.70;1.70;;;13.90;72.30;;;;;;10420669;28;20217;-81
2021/05/26 01:55:47;;;;;;;2.00;1.57;;;13.80;70.90;;;;;;10441131;28;20264;-79
2021/05/26 02:00:50;;;;;;;2.17;1.77;;;13.80;71.70;;;;;;10457199;28;20256;-79
2021/05/26 02:05:52;;;;;;;3.50;1.60;;;13.80;71.10;;;;;;10433979;28;20205;-79
2021/05/26 02:16:14;;;;;;;1.77;1.67;;;13.80;70.60;;;;;;10431993;28;20202;-78
2021/05/26 02:21:18;;;;;;;2.17;1.87;;;13.80;71.30;;;;;;10422870;28;20237;-81
2021/05/26 02:26:21;;;;;;;1.90;1.80;;;13.80;72.30;;;;;;10456786;28;20569;-81
2021/05/26 02:31:22;;;;;;;2.07;1.80;;;13.80;72.00;;;;;;10456856;28;20213;-78
2021/05/26 02:36:25;;;;;;;3.40;1.67;;;13.70;72.00;;;;;;10455970;28;20721;-79
2021/05/26 02:41:28;;;;;;;2.07;1.70;;;13.60;72.90;;;;;;10438674;28;20232;-81
2021/05/26 02:46:29;;;;;;;1.80;1.70;;;13.60;73.20;;;;;;10429987;28;20233;-79
2021/05/26 02:51:32;;;;;;;4.13;2.00;;;13.60;73.90;;;;;;10462625;28;20340;-79
2021/05/26 02:56:36;;;;;;;1.80;1.70;;;13.70;74.00;;;;;;10459329;28;20202;-79
2021/05/26 03:01:56;;;;;;;1.77;1.67;;;13.70;74.50;;;;;;10457832;28;20248;-79
2021/05/26 03:07:06;;;;;;;2.87;1.90;;;13.70;76.20;;;;;;10431898;28;21275;-79
2021/05/26 03:12:10;;;;;;;2.73;2.20;;;13.70;77.80;;;;;;10455333;28;20220;-79
2021/05/26 03:17:14;;;;;;;1.77;1.67;;;13.70;78.00;;;;;;10449717;28;20224;-79
2021/05/26 03:22:16;;;;;;;2.33;2.13;;;13.60;78.20;;;;;;10431935;28;20260;-79
2021/05/26 03:27:42;;;;;;;2.50;2.00;;;13.40;78.80;;;;;;10438370;28;20212;-81
2021/05/26 03:32:44;;;;;;;2.10;1.90;;;13.40;78.70;;;;;;10443285;28;20217;-79
2021/05/26 03:37:46;;;;;;;1.83;1.73;;;13.40;79.10;;;;;;10440627;28;20209;-79
2021/05/26 03:42:49;;;;;;;2.27;2.07;;;13.40;79.30;;;;;;10418511;28;20230;-79
2021/05/26 03:48:05;;;;;;;2.33;2.07;;;13.30;78.80;;;;;;10442358;28;20205;-81
2021/05/26 03:53:08;;;;;;;2.97;2.00;;;13.40;77.90;;;;;;10404071;28;20637;-81
2021/05/26 03:58:12;;;;;;;2.10;1.70;;;13.40;78.30;;;;;;10457019;28;20197;-79
2021/05/26 04:03:14;;;;;;;3.07;1.97;;;13.40;77.20;;;;;;10434007;22;20264;-80
2021/05/26 04:08:17;;;;;;;2.37;1.90;;;13.40;77.80;;;;;;10402194;28;20198;-80
2021/05/26 04:13:20;;;;;;;2.60;1.77;;;13.50;78.70;;;;;;10439515;28;20618;-80
2021/05/26 04:18:30;;;;;;;2.50;2.30;;;13.60;77.70;;;;;;10424611;28;20295;-80
2021/05/26 04:23:33;;;;;;;2.97;1.70;;;13.60;78.30;;;;;;10425450;28;20230;-80
2021/05/26 04:28:43;;;;;;;2.20;1.90;;;13.50;78.80;;;;;;10425232;28;20267;-80
2021/05/26 04:33:45;;;;;;;1.67;1.57;;;13.50;79.60;;;;;;10433471;28;20213;-80
2021/05/26 04:38:47;;;;;;;1.80;1.70;;;13.50;80.90;;;;;;10436846;28;20201;-81
2021/05/26 04:43:49;;;;;;;2.33;2.13;;;13.40;81.80;;;;;;10423975;28;20591;-80
2021/05/26 04:48:51;;;;;;;2.07;1.97;;;13.30;83.70;;;;;;10437915;28;20197;-80
2021/05/26 04:53:52;;;;;;;5.63;2.50;;;13.20;86.70;;;;;;10455456;28;20707;-80
2021/05/26 04:58:55;;;;;;;2.13;2.00;;;13.20;86.10;;;;;;10431284;28;20216;-80
2021/05/26 05:03:56;;;;;;;2.10;1.90;;;13.10;85.90;;;;;;10436213;28;20232;-80
2021/05/26 05:08:58;;;;;;;1.80;1.70;;;13.10;86.80;;;;;;10443753;28;20212;-78
2021/05/26 05:14:00;;;;;;;2.33;1.97;;;13.10;87.50;;;;;;10398857;28;20260;-78
2021/05/26 05:19:02;;;;;;;2.07;1.97;;;13.00;88.00;;;;;;10411815;28;20648;-78
2021/05/26 05:24:05;;;;;;;2.23;1.87;;;12.90;88.50;;;;;;10431370;28;20224;-78
2021/05/26 05:29:07;;;;;;;2.00;1.80;;;12.80;90.20;;;;;;10408904;28;20194;-78
2021/05/26 05:34:09;;;;;;;1.90;1.67;;;12.60;90.20;;;;;;10437282;28;20647;-78
2021/05/26 05:39:11;;;;;;;2.20;2.00;;;12.50;90.80;;;;;;10460626;28;20197;-78
2021/05/26 05:44:13;;;;;;;2.50;1.83;;;12.40;91.40;;;;;;10460543;28;20227;-78
2021/05/26 05:49:15;;;;;;;2.33;2.13;;;12.40;91.40;;;;;;10460614;28;20276;-78
2021/05/26 05:54:16;;;;;;;2.00;1.80;;;12.40;92.30;;;;;;10462049;28;20236;-78
2021/05/26 05:59:20;;;;;;;2.30;2.10;;;12.50;92.80;;;;;;10460124;28;20205;-78
2021/05/26 06:04:21;;;;;;;2.63;2.43;;;12.60;93.30;;;;;;10456786;28;20235;-78
2021/05/26 06:09:23;;;;;;;2.13;1.60;;;12.60;94.10;;;;;;10465476;28;20231;-78
2021/05/26 06:14:26;;;;;;;2.80;1.90;;;12.70;94.90;;;;;;10466754;28;20580;-78
2021/05/26 06:19:27;;;;;;;4.60;2.17;;;12.70;95.60;;;;;;10466118;28;20201;-78
2021/05/26 06:24:29;;;;;;;1.80;1.70;;;12.80;97.20;;;;;;10479727;28;20288;-78
2021/05/26 06:29:31;;;;;;;2.17;2.00;;;12.90;97.60;;;;;;10463763;28;20716;-79
2021/05/26 06:34:33;;;;;;;3.50;2.00;;;13.00;97.50;;;;;;10464822;28;20287;-78
2021/05/26 06:39:35;;;;;;;2.70;2.00;;;13.10;97.50;;;;;;10459802;28;20259;-78
2021/05/26 06:44:37;;;;;;;2.40;1.90;;;13.20;97.70;;;;;;10458774;28;20224;-78
2021/05/26 06:49:39;;;;;;;2.30;2.10;;;13.20;99.20;;;;;;10457554;28;20200;-78
2021/05/26 06:54:40;;;;;;;5.10;2.93;;;13.20;98.00;;;;;;10458154;28;20221;-78
2021/05/26 06:59:43;;;;;;;2.43;2.20;;;13.10;98.00;;;;;;10450403;28;20307;-78
2021/05/26 07:04:44;;;;;;;2.53;1.90;;;13.10;97.70;;;;;;10459071;28;20237;-78
2021/05/26 07:09:46;;;;;;;2.80;2.60;;;13.10;97.60;;;;;;10457928;28;20193;-78
2021/05/26 07:14:50;;;;;;;3.43;2.70;;;13.00;99.00;;;;;;10458370;28;20567;-79
2021/05/26 07:19:53;;;;;;;3.93;2.90;;;13.10;98.40;;;;;;10456454;28;20217;-79
2021/05/26 07:24:55;;;;;;;3.10;2.77;;;13.10;98.80;;;;;;10451257;28;20639;-79
2021/05/26 07:29:57;;;;;;;5.73;2.80;;;13.10;99.60;;;;;;10455984;28;20209;-78
2021/05/26 07:34:59;;;;;;;3.13;2.83;;;13.20;98.90;;;;;;10458359;28;20224;-78
2021/05/26 07:40:01;;;;;;;4.10;3.47;;;13.20;98.70;;;;;;10456514;28;20221;-78
2021/05/26 07:45:04;;;;;;;2.93;2.50;;;13.10;98.70;;;;;;10457139;28;20696;-79
2021/05/26 07:50:10;;;;;;;4.87;2.50;;;13.20;99.10;;;;;;10457306;28;20825;-79
2021/05/26 07:55:21;;;;;;;4.30;2.70;;;13.30;98.30;;;;;;10456246;28;20221;-79
2021/05/26 08:00:25;;;;;;;4.50;2.40;;;13.40;97.00;;;;;;10431474;28;20715;-79
2021/05/26 08:05:26;;;;;;;3.03;2.47;;;13.50;97.20;;;;;;10456655;28;20229;-79
2021/05/26 08:10:28;;;;;;;3.43;2.70;;;13.70;95.70;;;;;;10455917;28;20189;-78
2021/05/26 08:15:30;;;;;;;5.67;2.63;;;13.80;95.40;;;;;;10456852;28;20228;-79
2021/05/26 08:20:32;;;;;;;4.20;2.40;;;13.90;94.60;;;;;;10456577;28;20242;-79
2021/05/26 08:25:34;;;;;;;4.53;2.30;;;13.90;94.20;;;;;;10454374;28;20225;-79
2021/05/26 08:30:36;;;;;;;3.43;1.93;;;14.00;93.60;;;;;;10457120;28;20219;-78
2021/05/26 08:35:38;;;;;;;5.17;2.30;;;14.10;93.70;;;;;;10458042;28;20251;-78
2021/05/26 08:40:40;;;;;;;3.23;2.20;;;14.10;93.80;;;;;;10443755;28;20213;-78
2021/05/26 08:45:42;;;;;;;3.67;2.47;;;14.20;94.00;;;;;;10456817;28;20596;-78
2021/05/26 08:50:46;;;;;;;5.53;2.63;;;14.30;93.50;;;;;;10455523;28;20197;-78
2021/05/26 08:55:47;;;;;;;3.03;2.20;;;14.40;93.40;;;;;;10454372;28;20229;-78
2021/05/26 09:00:50;;;;;;;5.20;2.80;;;14.40;93.10;;;;;;10454395;28;20208;-79
2021/05/26 09:05:52;;;;;;;4.37;2.57;;;14.40;93.00;;;;;;10455666;28;20229;-79
2021/05/26 09:10:57;;;;;;;2.33;1.97;;;14.50;92.40;;;;;;10455068;28;20657;-79
2021/05/26 09:15:59;;;;;;;3.10;2.20;;;14.40;91.50;;;;;;10453724;28;20303;-78
2021/05/26 09:21:01;;;;;;;4.43;2.23;;;14.40;92.60;;;;;;10451229;28;20488;-78
2021/05/26 09:26:02;;;;;;;3.67;2.07;;;14.40;92.40;;;;;;10433932;28;20193;-79
2021/05/26 09:31:06;;;;;;;2.40;2.20;;;14.50;91.30;;;;;;10452743;28;20189;-79
2021/05/26 09:36:20;;;;;;;5.07;2.50;;;14.50;92.10;;;;;;10458223;28;20272;-78
2021/05/26 09:46:40;;;;;;;4.93;3.17;;;14.40;91.50;;;;;;10199379;26;20217;-77
2021/05/26 09:51:44;;;;;;;2.63;2.23;;;14.40;91.80;;;;;;10404402;28;20218;-77
2021/05/26 09:56:47;;;;;;;2.93;2.27;;;14.40;91.30;;;;;;10401400;28;20198;-76
2021/05/26 10:01:54;;;;;;;2.57;2.30;;;14.40;91.40;;;;;;10430338;28;20251;-77
2021/05/26 10:06:56;;;;;;;2.40;1.40;;;14.50;90.70;;;;;;10414739;28;20197;-77
2021/05/26 10:12:05;;;;;;;1.90;1.70;;;14.70;91.00;;;;;;10416889;28;20210;-77
2021/05/26 10:17:17;;;;;;;5.27;1.90;;;14.90;90.70;;;;;;10416728;28;20248;-77
2021/05/26 10:22:20;;;;;;;1.50;1.40;;;15.00;90.40;;;;;;10414846;28;20230;-77
2021/05/26 10:27:32;;;;;;;1.93;1.70;;;15.00;89.50;;;;;;10422740;28;20285;-77
2021/05/26 10:32:55;;;;;;;2.10;2.00;;;15.10;90.70;;;;;;10415671;28;20225;-77
2021/05/26 10:38:04;;;;;;;1.77;1.70;;;15.20;90.50;;;;;;10416158;28;20210;-77
2021/05/26 10:43:30;;;;;;;2.23;1.87;;;15.30;88.50;;;;;;10414159;28;20230;-77
2021/05/26 10:49:06;;;;;;;1.57;1.47;;;15.30;88.80;;;;;;10407410;28;20206;-77
2021/05/26 10:54:08;;;;;;;2.07;1.97;;;15.20;88.60;;;;;;10413313;28;20592;-77
2021/05/26 10:59:11;;;;;;;1.37;1.37;;;15.20;87.50;;;;;;10413834;28;20209;-77
2021/05/26 11:04:20;;;;;;;2.10;1.90;;;15.20;86.20;;;;;;10413602;28;20252;-77
2021/05/26 11:09:56;;;;;;;2.40;1.80;;;15.40;89.00;;;;;;10415907;28;20709;-77
2021/05/26 11:14:58;;;;;;;1.80;1.70;;;15.60;86.30;;;;;;10414285;28;20245;-77
2021/05/26 11:20:21;;;;;;;1.90;1.80;;;15.40;87.30;;;;;;10415805;28;20749;-77
2021/05/26 11:25:23;;;;;;;1.90;1.80;;;15.30;88.60;;;;;;10412743;28;20300;-77
2021/05/26 11:30:27;;;;;;;2.13;2.00;;;15.30;88.20;;;;;;10413061;28;20260;-77
2021/05/26 11:35:28;;;;;;;1.90;1.80;;;15.40;87.00;;;;;;10412250;28;20295;-77
2021/05/26 11:40:33;;;;;;;1.90;1.80;;;15.50;86.30;;;;;;10396181;28;20218;-78
2021/05/26 11:51:09;;;;;;;2.20;1.80;;;15.40;84.90;;;;;;10406279;28;20206;-77
2021/05/26 11:56:15;;;;;;;1.60;1.50;;;15.30;84.90;;;;;;10414318;28;20201;-77
2021/05/26 12:01:17;;;;;;;2.00;1.90;;;15.30;84.30;;;;;;10414979;28;20217;-77
2021/05/26 12:06:20;;;;;;;1.90;1.60;;;15.30;85.00;;;;;;10413915;28;20414;-77
2021/05/26 12:11:27;;;;;;;2.30;1.70;;;15.40;84.30;;;;;;10396282;28;20706;-77
2021/05/26 12:16:30;;;;;;;3.83;1.40;;;15.50;83.30;;;;;;10414033;28;20237;-77
2021/05/26 12:21:32;;;;;;;1.50;1.40;;;15.70;85.30;;;;;;10412128;28;20275;-78
2021/05/26 12:26:36;;;;;;;1.97;1.80;;;15.80;81.90;;;;;;10395736;28;20206;-77
2021/05/26 12:31:41;;;;;;;1.80;1.70;;;16.00;82.30;;;;;;10412922;28;20209;-77
2021/05/26 12:36:50;;;;;;;1.60;1.50;;;16.20;81.90;;;;;;10412988;28;20210;-77
2021/05/26 12:41:53;;;;;;;2.10;1.90;;;16.40;82.30;;;;;;10395984;28;20233;-77
2021/05/26 12:46:57;;;;;;;1.50;1.40;;;16.70;81.70;;;;;;10412596;28;20206;-77
2021/05/26 12:52:00;;;;;;;1.73;1.63;;;16.90;80.00;;;;;;10412202;28;20221;-77
2021/05/26 12:57:06;;;;;;;1.50;1.40;;;17.10;78.80;;;;;;10413728;28;20236;-77
2021/05/26 13:02:09;;;;;;;1.80;1.70;;;17.20;77.50;;;;;;10421363;28;20225;-77
2021/05/26 13:07:26;;;;;;;1.43;1.33;;;17.30;79.40;;;;;;10421072;28;20213;-77
2021/05/26 13:12:30;;;;;;;1.63;1.53;;;17.30;78.50;;;;;;10420497;28;20657;-77
2021/05/26 13:17:32;;;;;;;1.50;1.40;;;17.20;77.90;;;;;;10420150;28;20247;-77
2021/05/26 13:22:34;;;;;;;3.93;1.90;;;17.20;78.20;;;;;;10420561;28;20222;-77
2021/05/26 13:27:41;;;;;;;1.60;1.50;;;17.10;78.40;;;;;;10419739;28;20202;-78
2021/05/26 13:32:42;;;;;;;1.60;1.50;;;17.00;78.30;;;;;;10419580;28;20760;-77
2021/05/26 13:37:44;;;;;;;1.80;1.70;;;17.10;78.60;;;;;;10421519;28;20275;-77
2021/05/26 13:42:47;;;;;;;1.73;1.63;;;17.20;80.70;;;;;;10421460;28;20275;-77
2021/05/26 13:47:49;;;;;;;3.90;1.73;;;17.40;78.50;;;;;;10418934;28;20665;-77
2021/05/26 13:52:53;;;;;;;1.57;1.47;;;17.50;76.10;;;;;;10417664;28;20583;-77
2021/05/26 13:57:57;;;;;;;2.13;1.67;;;17.40;76.70;;;;;;10418754;28;20230;-78
2021/05/26 14:02:59;;;;;;;1.97;1.87;;;17.40;78.00;;;;;;10417733;28;20678;-77
2021/05/26 14:08:00;;;;;;;3.60;1.83;;;17.60;78.60;;;;;;10416176;28;20680;-78
2021/05/26 14:13:03;;;;;;;1.77;1.67;;;17.80;77.00;;;;;;10419059;28;20217;-77
2021/05/26 14:18:05;;;;;;;2.90;1.17;;;17.90;75.20;;;;;;10417451;28;20209;-77
2021/05/26 14:23:08;;;;;;;2.80;1.53;;;17.90;76.60;;;;;;10426921;28;20222;-77
2021/05/26 14:28:11;;;;;;;1.60;1.50;;;17.80;75.10;;;;;;10417149;28;20206;-78
2021/05/26 14:33:13;;;;;;;1.80;1.70;;;17.80;77.00;;;;;;10416741;28;20222;-77
2021/05/26 14:38:27;;;;;;;1.67;1.57;;;17.80;76.00;;;;;;10417058;28;20581;-78
2021/05/26 14:43:32;;;;;;;1.87;1.70;;;17.80;75.60;;;;;;10415587;28;20489;-77
2021/05/26 14:48:33;;;;;;;3.63;1.20;;;17.70;75.90;;;;;;10410546;28;20202;-77
2021/05/26 14:53:36;;;;;;;1.57;1.47;;;17.60;76.10;;;;;;10417306;28;20263;-77
2021/05/26 14:58:40;;;;;;;3.87;1.50;;;17.50;76.90;;;;;;10414696;28;20666;-77
2021/05/26 15:03:41;;;;;;;1.57;1.47;;;17.40;77.50;;;;;;10413919;28;20237;-77
2021/05/26 15:08:43;;;;;;;2.37;1.63;;;17.30;76.60;;;;;;10412762;28;20209;-77
2021/05/26 15:13:47;;;;;;;1.80;1.70;;;17.30;73.40;;;;;;10414107;28;20279;-77
2021/05/26 15:18:49;;;;;;;1.60;1.50;;;17.10;75.00;;;;;;10412829;28;20205;-77
2021/05/26 15:23:50;;;;;;;1.70;1.60;;;16.90;75.40;;;;;;10408225;28;20257;-77
2021/05/26 15:28:53;;;;;;;2.40;1.60;;;16.80;75.80;;;;;;10411310;28;20300;-77
2021/05/26 15:33:54;;;;;;;1.57;1.47;;;16.70;75.20;;;;;;10411581;28;20292;-77
2021/05/26 15:38:56;;;;;;;1.20;1.10;;;16.50;76.10;;;;;;10411301;28;20198;-77
2021/05/26 15:43:58;;;;;;;1.57;1.47;;;16.50;77.30;;;;;;10411399;28;20246;-77
2021/05/26 15:49:00;;;;;;;1.33;1.33;;;16.50;75.60;;;;;;10412142;28;20206;-77
2021/05/26 15:54:02;;;;;;;1.63;1.10;;;16.40;75.00;;;;;;10411687;28;20221;-77
2021/05/26 15:59:07;;;;;;;1.63;1.40;;;16.30;76.20;;;;;;10411759;28;20202;-76
2021/05/26 16:04:09;;;;;;;1.23;1.23;;;16.20;76.70;;;;;;10459254;22;20794;-78
2021/05/26 16:09:11;;;;;;;1.20;1.20;;;16.10;79.00;;;;;;10460800;28;20292;-78
2021/05/26 16:14:14;;;;;;;1.40;1.30;;;16.20;77.90;;;;;;10457698;28;20300;-78
2021/05/26 16:19:15;;;;;;;2.20;1.50;;;16.20;79.00;;;;;;10458083;28;20201;-78
2021/05/26 16:24:17;;;;;;;1.37;1.37;;;16.20;79.30;;;;;;10458112;28;20270;-80
2021/05/26 16:29:20;;;;;;;1.50;1.50;;;16.40;77.80;;;;;;10457595;28;20205;-78
2021/05/26 16:34:27;;;;;;;1.80;1.70;;;16.40;78.70;;;;;;10588695;23;20236;-78
2021/05/26 16:39:41;;;;;;;1.50;1.40;;;16.40;78.50;;;;;;10460005;28;20197;-78
2021/05/26 16:50:12;;;;;;;2.00;1.90;;;16.50;79.70;;;;;;10462491;28;20205;-78
2021/05/26 16:55:19;;;;;;;1.83;1.73;;;16.50;79.80;;;;;;10452770;28;20225;-78
2021/05/26 17:00:27;;;;;;;1.60;1.50;;;16.50;78.50;;;;;;10456483;28;20208;-78
2021/05/26 17:05:29;;;;;;;1.80;1.37;;;16.40;74.30;;;;;;10449734;28;20221;-79
2021/05/26 17:10:31;;;;;;;1.50;1.40;;;16.30;73.60;;;;;;10440429;28;20212;-79
2021/05/26 17:15:33;;;;;;;1.13;1.13;;;16.20;72.70;;;;;;10456735;28;20217;-79
2021/05/26 17:20:36;;;;;;;1.70;1.60;;;16.00;76.50;;;;;;10441439;28;20305;-78
2021/05/26 17:25:38;;;;;;;1.60;1.50;;;15.80;75.70;;;;;;10448199;28;20512;-78
2021/05/26 17:30:41;;;;;;;1.67;1.57;;;15.70;80.20;;;;;;10456772;28;20274;-79
2021/05/26 17:35:42;;;;;;;1.60;1.50;;;15.60;82.70;;;;;;10416892;28;20229;-78
2021/05/26 17:40:44;;;;;;;1.33;1.23;;;15.40;80.60;;;;;;10437863;28;20214;-78
2021/05/26 17:45:47;;;;;;;1.90;1.40;;;15.30;81.00;;;;;;10467567;28;20267;-79
2021/05/26 17:50:49;;;;;;;1.40;1.33;;;15.10;80.90;;;;;;10445181;28;20201;-78
2021/05/26 17:55:51;;;;;;;1.70;1.60;;;14.90;83.60;;;;;;10446936;28;20594;-78
2021/05/26 18:00:54;;;;;;;2.13;1.80;;;14.80;83.90;;;;;;10447836;28;20248;-78
2021/05/26 18:05:56;;;;;;;1.90;1.80;;;14.70;84.50;;;;;;10434081;28;20713;-78
2021/05/26 18:10:57;;;;;;;2.07;1.60;;;14.50;86.90;;;;;;10439375;28;20220;-78
2021/05/26 18:16:00;;;;;;;3.03;1.50;;;14.40;86.10;;;;;;10446405;28;20574;-78
2021/05/26 18:21:02;;;;;;;1.73;1.63;;;14.40;86.50;;;;;;10456649;28;20323;-77
2021/05/26 18:26:04;;;;;;;1.67;1.57;;;14.30;84.70;;;;;;10454939;28;20242;-77
2021/05/26 18:31:07;;;;;;;1.70;1.60;;;14.20;86.30;;;;;;10452828;28;20669;-77
2021/05/26 18:36:10;;;;;;;1.57;1.57;;;14.00;89.60;;;;;;10456640;28;20256;-77
2021/05/26 18:41:12;;;;;;;2.00;1.90;;;13.90;89.90;;;;;;10455537;28;20685;-77
2021/05/26 18:46:15;;;;;;;1.10;1.00;;;13.70;90.90;;;;;;10444617;28;20608;-78
2021/05/26 18:51:17;;;;;;;1.80;1.70;;;13.50;91.60;;;;;;10425411;28;20201;-78
2021/05/26 18:56:18;;;;;;;2.47;2.27;;;13.20;92.50;;;;;;10450085;28;20270;-78
2021/05/26 19:01:21;;;;;;;1.83;1.30;;;13.00;93.00;;;;;;10450422;28;20323;-78
2021/05/26 19:06:22;;;;;;;2.10;1.97;;;12.80;92.20;;;;;;10433161;28;20760;-78
2021/05/26 19:11:24;;;;;;;1.87;1.77;;;12.60;93.20;;;;;;10438662;28;20296;-78
2021/05/26 19:16:27;;;;;;;1.60;1.50;;;12.40;93.80;;;;;;10433943;28;20285;-77
2021/05/26 19:21:29;;;;;;;2.53;2.43;;;12.30;94.60;;;;;;10434600;28;20249;-77
2021/05/26 19:26:30;;;;;;;2.60;2.50;;;12.10;94.90;;;;;;10449342;28;20242;-76
2021/05/26 19:31:33;;;;;;;2.57;2.47;;;12.10;97.00;;;;;;10431126;28;20818;-77
2021/05/26 19:36:35;;;;;;;2.70;2.60;;;12.00;98.20;;;;;;10449212;28;20228;-77
2021/05/26 19:41:37;;;;;;;2.23;2.13;;;11.90;99.10;;;;;;10440824;28;20558;-76
2021/05/26 19:46:39;;;;;;;3.70;3.40;;;11.90;99.90;;;;;;10451427;28;20316;-77
2021/05/26 19:51:41;;;;;;;4.67;4.37;;;11.80;99.90;;;;;;10450151;28;20209;-76
2021/05/26 19:56:42;;;;;;;4.10;3.90;;;11.60;99.90;;;;;;10436374;28;20631;-76
2021/05/26 20:01:45;;;;;;;4.10;3.80;;;11.50;99.90;;;;;;10452246;28;20209;-76
2021/05/26 20:06:49;;;;;;;3.53;3.37;;;11.40;99.90;;;;;;10424145;28;20328;-76
2021/05/26 20:11:51;;;;;;;3.67;3.57;;;11.30;99.90;;;;;;10419391;28;20201;-77
2021/05/26 20:16:54;;;;;;;2.97;2.73;;;11.30;99.90;;;;;;10435554;28;20201;-76
2021/05/26 20:21:56;;;;;;;3.00;2.90;;;11.30;99.90;;;;;;10450647;28;20717;-77
2021/05/26 20:26:57;;;;;;;3.10;2.47;;;11.30;99.90;;;;;;10453435;28;20201;-77
2021/05/26 20:32:00;;;;;;;2.40;2.30;;;11.30;99.90;;;;;;10453577;28;20285;-77
2021/05/26 20:37:02;;;;;;;2.30;2.20;;;11.30;99.90;;;;;;10435437;28;20794;-76
2021/05/26 20:42:04;;;;;;;2.03;1.93;;;11.40;99.90;;;;;;10435576;28;20229;-76
2021/05/26 20:47:07;;;;;;;2.10;2.00;;;11.50;99.90;;;;;;10432031;28;20684;-77
2021/05/26 20:52:09;;;;;;;2.00;1.80;;;11.60;99.90;;;;;;10440448;28;20293;-76
2021/05/26 20:57:11;;;;;;;1.30;1.27;;;11.70;99.90;;;;;;10446937;28;20201;-77
2021/05/26 21:02:13;;;;;;;1.50;1.37;;;11.80;99.90;;;;;;10446097;28;20236;-77
2021/05/26 21:07:15;;;;;;;1.73;1.63;;;11.80;99.90;;;;;;10436490;28;20212;-77
2021/05/26 21:12:17;;;;;;;1.90;1.57;;;11.90;99.90;;;;;;10452031;28;20696;-77
2021/05/26 21:17:20;;;;;;;1.67;1.57;;;11.90;99.90;;;;;;10454838;28;20205;-77
2021/05/26 21:22:22;;;;;;;1.63;1.53;;;12.00;99.90;;;;;;10458697;28;20795;-77
2021/05/26 21:27:24;;;;;;;1.57;1.47;;;12.00;99.90;;;;;;10460613;28;20208;-79
2021/05/26 21:32:26;;;;;;;1.30;1.20;;;12.10;99.90;;;;;;10467413;28;20273;-77
2021/05/26 21:37:28;;;;;;;1.33;1.33;;;12.10;99.90;;;;;;10453616;28;20208;-77
2021/05/26 21:42:29;;;;;;;1.70;1.60;;;12.20;99.90;;;;;;10461977;28;20232;-77
2021/05/26 21:47:33;;;;;;;2.90;1.60;;;12.20;99.90;;;;;;10459260;28;20661;-76
2021/05/26 21:52:34;;;;;;;1.60;1.50;;;12.20;99.90;;;;;;10458022;28;20633;-77
2021/05/26 21:57:36;;;;;;;2.00;1.80;;;12.30;99.90;;;;;;10462419;28;20247;-77
2021/05/26 22:02:38;;;;;;;3.93;3.03;;;12.30;99.90;;;;;;10458176;28;20225;-78
2021/05/26 22:07:40;;;;;;;2.20;1.70;;;12.40;99.90;;;;;;10458209;28;20679;-78
2021/05/26 22:12:43;;;;;;;1.23;1.23;;;12.40;99.90;;;;;;10458534;28;20300;-78
2021/05/26 22:17:45;;;;;;;1.57;1.47;;;12.40;99.90;;;;;;10458798;28;20243;-78
2021/05/26 22:22:47;;;;;;;1.30;1.30;;;12.40;99.90;;;;;;10457061;28;20666;-78
2021/05/26 22:27:53;;;;;;;2.40;1.60;;;12.40;99.90;;;;;;10458501;28;20204;-78
2021/05/26 22:32:56;;;;;;;1.90;1.80;;;12.50;99.90;;;;;;10453731;28;20312;-77
2021/05/26 22:37:58;;;;;;;1.70;1.60;;;12.50;99.90;;;;;;10455650;28;20201;-77
2021/05/26 22:43:00;;;;;;;1.63;1.53;;;12.40;99.90;;;;;;10455754;28;20704;-80
2021/05/26 22:48:07;;;;;;;1.50;1.40;;;12.40;99.90;;;;;;10444435;28;20212;-78
2021/05/26 22:53:13;;;;;;;1.50;1.50;;;12.30;99.90;;;;;;10442001;28;20717;-77
2021/05/26 22:58:15;;;;;;;1.60;1.50;;;12.30;99.90;;;;;;10449739;28;20275;-78
2021/05/26 23:03:33;;;;;;;1.70;1.60;;;12.30;99.90;;;;;;10443788;28;20720;-78
2021/05/26 23:08:36;;;;;;;2.00;1.90;;;12.20;99.90;;;;;;10409436;28;20205;-77
2021/05/26 23:13:38;;;;;;;1.67;1.57;;;12.20;99.90;;;;;;10437910;28;20708;-78
2021/05/26 23:18:41;;;;;;;1.50;1.40;;;12.20;99.90;;;;;;10446816;28;20728;-79
2021/05/26 23:23:43;;;;;;;2.00;1.90;;;12.20;99.90;;;;;;10443428;28;20294;-78
2021/05/26 23:28:44;;;;;;;1.73;1.63;;;12.20;99.90;;;;;;10423698;28;20588;-78
2021/05/26 23:33:47;;;;;;;1.37;1.37;;;12.10;99.90;;;;;;10420763;28;20299;-77
2021/05/26 23:38:49;;;;;;;1.60;1.50;;;12.10;99.90;;;;;;10428642;28;20554;-78
2021/05/26 23:43:50;;;;;;;1.60;1.50;;;12.10;99.90;;;;;;10429332;28;20248;-79
2021/05/26 23:48:53;;;;;;;2.13;1.73;;;12.10;99.90;;;;;;10448248;28;20657;-78
2021/05/26 23:53:54;;;;;;;1.63;1.50;;;12.00;99.90;;;;;;10445378;28;20263;-79
2021/05/26 23:58:56;;;;;;;1.87;1.77;;;12.10;99.90;;;;;;10435933;28;20200;-79
